createdAt,value
2022-08-17T00:00:52.467Z,16.54
2022-08-17T00:03:22.245Z,16.51
2022-08-17T00:05:53.727Z,16.47
2022-08-17T00:08:25.437Z,16.43
2022-08-17T00:10:52.930Z,16.42
2022-08-17T00:13:25.099Z,16.36
2022-08-17T00:15:52.236Z,16.33
2022-08-17T00:18:58.402Z,16.33
2022-08-17T00:21:10.348Z,16.27
2022-08-17T00:23:38.233Z,16.18
2022-08-17T00:26:05.168Z,16.19
2022-08-17T00:28:33.272Z,16.18
2022-08-17T00:31:00.337Z,16.17
2022-08-17T00:33:28.518Z,16.15
2022-08-17T00:35:56.175Z,16.07
2022-08-17T00:38:23.747Z,16.09
2022-08-17T00:40:55.867Z,16.01
2022-08-17T00:43:39.978Z,15.97
2022-08-17T00:46:08.866Z,15.94
2022-08-17T00:48:36.524Z,15.94
2022-08-17T00:51:15.773Z,15.97
2022-08-17T00:53:44.139Z,15.94
2022-08-17T00:56:14.541Z,15.90
2022-08-17T00:58:41.571Z,15.91
2022-08-17T01:01:10.309Z,15.91
2022-08-17T01:03:37.704Z,15.91
2022-08-17T01:06:05.898Z,15.89
2022-08-17T01:08:33.022Z,15.89
2022-08-17T01:11:01.928Z,15.90
2022-08-17T01:13:39.753Z,15.90
2022-08-17T01:16:22.737Z,15.88
2022-08-17T01:18:51.813Z,15.82
2022-08-17T01:21:28.825Z,15.79
2022-08-17T01:23:55.904Z,15.77
2022-08-17T01:26:23.053Z,15.71
2022-08-17T01:28:53.888Z,15.72
2022-08-17T01:31:23.684Z,15.69
2022-08-17T01:33:50.555Z,15.66
2022-08-17T01:36:17.442Z,15.67
2022-08-17T01:38:44.287Z,15.68
2022-08-17T01:41:13.470Z,15.67
2022-08-17T01:44:06.611Z,15.65
2022-08-17T01:46:34.627Z,15.59
2022-08-17T01:49:05.148Z,15.56
2022-08-17T01:51:33.070Z,15.58
2022-08-17T01:54:02.196Z,15.57
2022-08-17T01:56:30.195Z,15.54
2022-08-17T01:58:57.120Z,15.56
2022-08-17T02:01:25.435Z,15.54
2022-08-17T02:03:59.181Z,15.50
2022-08-17T02:06:42.734Z,15.46
2022-08-17T02:09:16.445Z,15.44
2022-08-17T02:11:44.857Z,15.38
2022-08-17T02:14:13.515Z,15.36
2022-08-17T02:16:41.280Z,15.32
2022-08-17T02:19:10.174Z,15.32
2022-08-17T02:21:38.020Z,15.26
2022-08-17T02:24:06.563Z,15.22
2022-08-17T02:26:33.411Z,15.20
2022-08-17T02:29:00.314Z,15.18
2022-08-17T02:31:27.175Z,15.13
2022-08-17T02:34:03.344Z,15.05
2022-08-17T02:36:31.446Z,14.95
2022-08-17T02:38:58.298Z,15.00
2022-08-17T02:41:25.265Z,15.00
2022-08-17T02:43:52.138Z,14.99
2022-08-17T02:46:18.951Z,15.03
2022-08-17T02:48:45.812Z,15.05
2022-08-17T02:51:12.656Z,14.98
2022-08-17T02:53:39.503Z,14.97
2022-08-17T02:56:06.673Z,14.95
2022-08-17T02:58:35.458Z,14.98
2022-08-17T03:01:04.873Z,15.00
2022-08-17T03:03:31.785Z,15.01
2022-08-17T03:05:58.662Z,14.98
2022-08-17T03:08:37.780Z,14.98
2022-08-17T03:11:04.704Z,14.96
2022-08-17T03:13:31.625Z,14.95
2022-08-17T03:15:58.805Z,14.90
2022-08-17T03:18:26.387Z,14.83
2022-08-17T03:20:54.696Z,14.82
2022-08-17T03:23:24.232Z,14.80
2022-08-17T03:25:53.205Z,14.82
2022-08-17T03:28:21.343Z,14.80
2022-08-17T03:30:48.242Z,14.76
2022-08-17T03:33:15.131Z,14.76
2022-08-17T03:35:42.386Z,14.75
2022-08-17T03:38:10.692Z,14.71
2022-08-17T03:40:56.594Z,14.74
2022-08-17T03:43:25.887Z,14.76
2022-08-17T03:45:52.736Z,14.78
2022-08-17T03:48:20.519Z,14.72
2022-08-17T03:50:47.355Z,14.77
2022-08-17T03:53:16.095Z,14.75
2022-08-17T03:55:42.940Z,14.79
2022-08-17T03:58:09.802Z,14.78
2022-08-17T04:00:36.677Z,14.80
2022-08-17T04:03:06.690Z,14.76
2022-08-17T04:05:35.888Z,14.74
2022-08-17T04:08:02.833Z,14.75
2022-08-17T04:10:33.960Z,14.77
2022-08-17T04:13:08.286Z,14.79
2022-08-17T04:15:35.131Z,14.82
2022-08-17T04:18:01.974Z,14.82
2022-08-17T04:20:28.944Z,14.81
2022-08-17T04:23:15.559Z,14.79
2022-08-17T04:25:43.963Z,14.76
2022-08-17T04:28:16.391Z,14.76
2022-08-17T04:30:43.814Z,14.74
2022-08-17T04:33:15.701Z,14.70
2022-08-17T04:35:42.679Z,14.69
2022-08-17T04:38:10.412Z,14.70
2022-08-17T04:40:37.275Z,14.73
2022-08-17T04:43:06.316Z,14.80
2022-08-17T04:45:33.632Z,14.79
2022-08-17T04:48:01.015Z,14.85
2022-08-17T04:50:27.903Z,15.03
2022-08-17T04:52:56.612Z,15.17
2022-08-17T04:55:23.667Z,15.31
2022-08-17T04:57:50.489Z,15.35
2022-08-17T05:00:17.429Z,15.44
2022-08-17T05:02:49.549Z,15.44
2022-08-17T05:05:20.140Z,15.53
2022-08-17T05:07:48.255Z,15.58
2022-08-17T05:10:15.186Z,15.72
2022-08-17T05:12:42.168Z,15.76
2022-08-17T05:15:13.208Z,15.81
2022-08-17T05:17:40.098Z,15.89
2022-08-17T05:20:07.206Z,16.06
2022-08-17T05:22:34.041Z,16.20
2022-08-17T05:25:01.850Z,16.45
2022-08-17T05:27:35.298Z,16.68
2022-08-17T05:30:03.170Z,16.96
2022-08-17T05:32:38.256Z,17.15
2022-08-17T05:35:07.350Z,17.24
2022-08-17T05:37:34.213Z,17.52
2022-08-17T05:40:01.180Z,17.77
2022-08-17T05:42:28.046Z,18.15
2022-08-17T05:44:56.992Z,18.33
2022-08-17T05:47:24.918Z,18.36
2022-08-17T05:49:52.021Z,18.39
2022-08-17T05:52:20.783Z,18.56
2022-08-17T05:55:03.037Z,18.69
2022-08-17T05:57:39.879Z,18.87
2022-08-17T06:00:10.323Z,18.90
2022-08-17T06:02:55.059Z,19.02
2022-08-17T06:05:28.154Z,19.23
2022-08-17T06:08:02.424Z,19.46
2022-08-17T06:10:41.205Z,19.71
2022-08-17T06:13:15.734Z,20.07
2022-08-17T06:15:54.599Z,20.40
2022-08-17T06:18:23.189Z,20.62
2022-08-17T06:20:52.051Z,20.84
2022-08-17T06:23:33.501Z,21.05
2022-08-17T06:26:03.998Z,21.25
2022-08-17T06:28:36.974Z,21.54
2022-08-17T06:31:11.993Z,21.87
2022-08-17T06:33:39.865Z,21.91
2022-08-17T06:36:09.662Z,21.94
2022-08-17T06:38:48.276Z,21.97
2022-08-17T06:41:24.835Z,22.05
2022-08-17T06:44:43.237Z,22.07
2022-08-17T06:47:12.176Z,22.24
2022-08-17T06:49:55.545Z,22.13
2022-08-17T06:52:46.786Z,22.05
2022-08-17T06:55:17.799Z,22.21
2022-08-17T06:57:49.453Z,22.18
2022-08-17T07:00:17.938Z,22.31
2022-08-17T07:03:04.267Z,22.44
2022-08-17T07:05:34.051Z,22.42
2022-08-17T07:08:03.437Z,22.55
2022-08-17T07:10:39.139Z,22.62
2022-08-17T07:13:26.260Z,22.74
2022-08-17T07:15:57.181Z,22.83
2022-08-17T07:18:25.924Z,22.96
2022-08-17T07:20:58.666Z,22.95
2022-08-17T07:23:30.501Z,23.00
2022-08-17T07:26:04.607Z,23.12
2022-08-17T07:28:32.865Z,23.22
2022-08-17T07:30:59.726Z,23.21
2022-08-17T07:33:28.233Z,23.40
2022-08-17T07:35:56.231Z,23.64
2022-08-17T07:38:26.880Z,23.81
2022-08-17T07:40:53.937Z,23.90
2022-08-17T07:43:23.444Z,24.03
2022-08-17T07:45:50.562Z,24.16
2022-08-17T07:48:20.736Z,24.14
2022-08-17T07:50:49.364Z,24.23
2022-08-17T07:53:22.193Z,24.23
2022-08-17T07:55:49.976Z,24.29
2022-08-17T07:58:18.487Z,24.41
2022-08-17T08:01:02.935Z,24.50
2022-08-17T08:03:31.041Z,24.49
2022-08-17T08:06:00.293Z,24.72
2022-08-17T08:08:27.098Z,25.02
2022-08-17T08:10:58.668Z,24.98
2022-08-17T08:13:26.968Z,25.05
2022-08-17T08:15:55.002Z,25.30
2022-08-17T08:18:54.861Z,25.32
2022-08-17T08:21:12.870Z,25.42
2022-08-17T08:23:55.213Z,25.57
2022-08-17T08:26:22.053Z,25.66
2022-08-17T08:29:01.116Z,25.77
2022-08-17T08:31:46.500Z,26.13
2022-08-17T08:35:00.529Z,26.29
2022-08-17T08:37:24.978Z,26.58
2022-08-17T08:40:01.891Z,26.81
2022-08-17T08:42:31.685Z,27.07
2022-08-17T08:45:10.486Z,27.35
2022-08-17T08:47:55.870Z,27.85
2022-08-17T08:50:36.996Z,28.12
2022-08-17T08:53:08.263Z,28.10
2022-08-17T08:55:47.304Z,28.45
2022-08-17T08:58:31.538Z,28.34
2022-08-17T09:01:02.940Z,28.51
2022-08-17T09:03:52.291Z,28.50
2022-08-17T09:06:37.513Z,28.17
2022-08-17T09:09:20.962Z,28.45
2022-08-17T09:12:01.870Z,28.50
2022-08-17T09:14:45.337Z,28.55
2022-08-17T09:17:18.474Z,28.43
2022-08-17T09:19:59.486Z,28.35
2022-08-17T09:22:44.357Z,28.47
2022-08-17T09:25:19.539Z,28.47
2022-08-17T09:28:00.466Z,28.38
2022-08-17T09:30:32.518Z,28.37
2022-08-17T09:33:02.397Z,28.14
2022-08-17T09:35:36.855Z,28.03
2022-08-17T09:38:13.272Z,28.09
2022-08-17T09:40:48.528Z,28.13
2022-08-17T09:43:32.770Z,28.13
2022-08-17T09:46:08.011Z,28.03
2022-08-17T09:48:41.172Z,27.95
2022-08-17T09:51:34.357Z,27.95
2022-08-17T09:54:21.387Z,27.97
2022-08-17T09:57:28.589Z,28.10
2022-08-17T10:00:00.420Z,28.20
2022-08-17T10:02:27.333Z,28.40
2022-08-17T10:05:06.163Z,28.39
2022-08-17T10:07:36.365Z,28.65
2022-08-17T10:10:26.326Z,28.98
2022-08-17T10:13:02.608Z,29.19
2022-08-17T10:15:36.934Z,29.15
2022-08-17T10:18:03.779Z,28.90
2022-08-17T10:20:53.628Z,28.58
2022-08-17T10:23:27.049Z,28.49
2022-08-17T10:26:03.107Z,28.33
2022-08-17T10:28:36.329Z,28.49
2022-08-17T10:31:33.246Z,28.67
2022-08-17T10:34:07.267Z,28.99
2022-08-17T10:37:00.421Z,29.11
2022-08-17T10:39:36.421Z,29.26
2022-08-17T10:42:30.483Z,29.71
2022-08-17T10:45:05.290Z,29.96
2022-08-17T10:47:58.119Z,30.34
2022-08-17T10:50:42.260Z,30.47
2022-08-17T10:53:09.480Z,30.79
2022-08-17T10:55:36.318Z,30.67
2022-08-17T10:58:20.439Z,30.99
2022-08-17T11:00:53.293Z,31.05
2022-08-17T11:03:22.366Z,31.05
2022-08-17T11:05:55.894Z,31.23
2022-08-17T11:08:32.932Z,31.49
2022-08-17T11:11:15.562Z,31.10
2022-08-17T11:14:00.305Z,31.19
2022-08-17T11:16:27.157Z,31.24
2022-08-17T11:19:06.386Z,30.99
2022-08-17T11:21:42.174Z,30.97
2022-08-17T11:24:45.616Z,30.94
2022-08-17T11:27:29.687Z,30.53
2022-08-17T11:30:02.582Z,30.46
2022-08-17T11:32:47.765Z,30.47
2022-08-17T11:35:21.433Z,30.40
2022-08-17T11:37:48.292Z,30.35
2022-08-17T11:40:26.275Z,30.09
2022-08-17T11:43:08.213Z,29.94
2022-08-17T11:45:45.095Z,29.83
2022-08-17T11:48:28.872Z,29.92
2022-08-17T11:51:14.810Z,29.70
2022-08-17T11:53:41.615Z,29.57
2022-08-17T11:56:10.954Z,29.51
2022-08-17T11:58:44.866Z,29.39
2022-08-17T12:01:13.848Z,29.16
2022-08-17T12:03:55.373Z,29.07
2022-08-17T12:06:31.796Z,28.76
2022-08-17T12:09:07.302Z,28.66
2022-08-17T12:11:58.789Z,28.49
2022-08-17T12:15:11.144Z,28.38
2022-08-17T12:17:41.070Z,28.33
2022-08-17T12:20:12.275Z,28.23
2022-08-17T12:22:45.080Z,28.12
2022-08-17T12:25:16.045Z,28.07
2022-08-17T12:28:04.789Z,28.00
2022-08-17T12:30:34.332Z,27.92
2022-08-17T12:33:01.215Z,28.09
2022-08-17T12:35:28.029Z,28.04
2022-08-17T12:37:55.649Z,28.13
2022-08-17T12:40:24.108Z,28.24
2022-08-17T12:42:54.963Z,28.35
2022-08-17T12:45:24.327Z,28.46
2022-08-17T12:48:12.481Z,28.41
2022-08-17T12:50:44.105Z,28.50
2022-08-17T12:53:17.020Z,28.49
2022-08-17T12:55:44.241Z,28.59
2022-08-17T12:58:14.304Z,28.51
2022-08-17T13:00:47.574Z,28.60
2022-08-17T13:03:16.300Z,28.49
2022-08-17T13:06:03.384Z,28.40
2022-08-17T13:08:35.520Z,28.50
2022-08-17T13:11:04.662Z,28.22
2022-08-17T13:13:34.357Z,28.42
2022-08-17T13:16:06.515Z,28.58
2022-08-17T13:18:36.111Z,28.69
2022-08-17T13:21:02.989Z,28.87
2022-08-17T13:23:29.886Z,29.38
2022-08-17T13:26:03.258Z,29.67
2022-08-17T13:28:35.515Z,29.99
2022-08-17T13:31:23.219Z,30.51
2022-08-17T13:33:50.128Z,30.44
2022-08-17T13:36:27.895Z,30.13
2022-08-17T13:39:05.218Z,30.03
2022-08-17T13:41:33.596Z,29.57
2022-08-17T13:44:00.882Z,29.57
2022-08-17T13:46:31.724Z,29.65
2022-08-17T13:48:58.537Z,29.77
2022-08-17T13:51:27.175Z,30.07
2022-08-17T13:53:56.649Z,30.00
2022-08-17T13:56:38.236Z,29.98
2022-08-17T13:59:07.637Z,30.22
2022-08-17T14:01:53.645Z,30.42
2022-08-17T14:04:22.900Z,30.58
2022-08-17T14:06:54.034Z,30.74
2022-08-17T14:09:26.419Z,31.02
2022-08-17T14:11:54.089Z,31.09
2022-08-17T14:14:21.397Z,30.88
2022-08-17T14:16:48.448Z,30.60
2022-08-17T14:19:15.488Z,30.55
2022-08-17T14:21:43.952Z,30.45
2022-08-17T14:24:15.930Z,30.37
2022-08-17T14:26:43.069Z,30.12
2022-08-17T14:29:15.000Z,30.09
2022-08-17T14:31:42.361Z,30.07
2022-08-17T14:34:15.613Z,29.84
2022-08-17T14:36:45.437Z,29.81
2022-08-17T14:39:15.903Z,29.89
2022-08-17T14:41:43.031Z,29.83
2022-08-17T14:44:10.209Z,29.88
2022-08-17T14:46:37.022Z,30.16
2022-08-17T14:49:04.072Z,30.54
2022-08-17T14:51:30.969Z,30.76
2022-08-17T14:53:58.001Z,31.00
2022-08-17T14:56:25.912Z,31.19
2022-08-17T14:58:52.812Z,31.46
2022-08-17T15:01:20.724Z,31.29
2022-08-17T15:03:47.679Z,31.62
2022-08-17T15:06:14.551Z,31.89
2022-08-17T15:08:43.322Z,32.13
2022-08-17T15:11:14.505Z,32.88
2022-08-17T15:13:52.182Z,32.67
2022-08-17T15:16:20.049Z,33.00
2022-08-17T15:18:46.921Z,33.16
2022-08-17T15:21:13.834Z,33.24
2022-08-17T15:23:40.679Z,33.24
2022-08-17T15:26:09.727Z,33.51
2022-08-17T15:28:36.574Z,33.75
2022-08-17T15:31:03.715Z,33.80
2022-08-17T15:33:30.564Z,33.51
2022-08-17T15:35:58.933Z,33.69
2022-08-17T15:38:26.324Z,33.64
2022-08-17T15:40:53.523Z,33.72
2022-08-17T15:43:27.632Z,33.77
2022-08-17T15:46:00.467Z,34.09
2022-08-17T15:48:28.297Z,34.17
2022-08-17T15:50:55.173Z,34.28
2022-08-17T15:53:22.011Z,34.28
2022-08-17T15:55:48.880Z,34.60
2022-08-17T15:58:19.381Z,34.61
2022-08-17T16:00:56.845Z,34.29
2022-08-17T16:03:58.150Z,33.87
2022-08-17T16:06:28.640Z,33.44
2022-08-17T16:08:56.784Z,33.14
2022-08-17T16:11:23.897Z,32.72
2022-08-17T16:13:54.695Z,32.23
2022-08-17T16:16:22.064Z,31.87
2022-08-17T16:18:55.572Z,31.47
2022-08-17T16:21:25.786Z,31.18
2022-08-17T16:23:58.215Z,31.09
2022-08-17T16:26:25.555Z,30.99
2022-08-17T16:28:52.551Z,30.80
2022-08-17T16:31:19.724Z,30.75
2022-08-17T16:34:15.460Z,30.49
2022-08-17T16:36:33.861Z,30.29
2022-08-17T16:39:00.985Z,30.12
2022-08-17T16:41:27.872Z,30.11
2022-08-17T16:43:54.833Z,30.03
2022-08-17T16:46:21.679Z,29.90
2022-08-17T16:48:48.512Z,29.67
2022-08-17T16:51:15.354Z,29.47
2022-08-17T16:53:42.217Z,29.22
2022-08-17T16:56:09.028Z,29.26
2022-08-17T16:58:36.879Z,29.18
2022-08-17T17:01:07.123Z,29.11
2022-08-17T17:03:34.505Z,28.92
2022-08-17T17:06:24.222Z,28.85
2022-08-17T17:09:02.406Z,28.71
2022-08-17T17:11:32.654Z,28.66
2022-08-17T17:14:05.925Z,28.55
2022-08-17T17:16:35.513Z,28.39
2022-08-17T17:19:10.969Z,28.27
2022-08-17T17:21:37.860Z,28.09
2022-08-17T17:24:08.386Z,27.95
2022-08-17T17:26:44.168Z,27.77
2022-08-17T17:29:28.227Z,27.55
2022-08-17T17:32:00.989Z,27.29
2022-08-17T17:34:28.876Z,27.15
2022-08-17T17:36:57.908Z,27.06
2022-08-17T17:39:24.735Z,26.84
2022-08-17T17:41:53.600Z,26.75
2022-08-17T17:44:24.667Z,26.58
2022-08-17T17:46:54.484Z,26.50
2022-08-17T17:49:21.780Z,26.31
2022-08-17T17:52:12.260Z,26.13
2022-08-17T17:54:41.308Z,25.88
2022-08-17T17:57:17.189Z,25.64
2022-08-17T17:59:53.091Z,25.51
2022-08-17T18:02:22.732Z,25.37
2022-08-17T18:04:59.607Z,25.27
2022-08-17T18:07:26.441Z,25.15
2022-08-17T18:10:01.378Z,24.98
2022-08-17T18:12:29.417Z,24.87
2022-08-17T18:15:02.694Z,24.83
2022-08-17T18:17:29.541Z,24.74
2022-08-17T18:19:56.829Z,24.71
2022-08-17T18:22:24.122Z,24.55
2022-08-17T18:24:52.853Z,24.33
2022-08-17T18:27:22.503Z,24.12
2022-08-17T18:29:50.573Z,23.88
2022-08-17T18:32:17.393Z,23.75
2022-08-17T18:34:48.330Z,23.64
2022-08-17T18:37:35.881Z,23.61
2022-08-17T18:40:18.300Z,23.48
2022-08-17T18:42:55.343Z,23.45
2022-08-17T18:45:31.247Z,23.43
2022-08-17T18:47:58.077Z,23.40
2022-08-17T18:50:34.019Z,23.29
2022-08-17T18:53:18.792Z,23.15
2022-08-17T18:55:45.668Z,23.11
2022-08-17T18:58:20.494Z,23.02
2022-08-17T19:00:48.614Z,22.94
2022-08-17T19:03:15.511Z,22.82
2022-08-17T19:05:43.655Z,22.70
2022-08-17T19:08:28.597Z,22.52
2022-08-17T19:10:57.191Z,22.37
2022-08-17T19:13:42.654Z,22.29
2022-08-17T19:16:17.208Z,22.15
2022-08-17T19:19:04.291Z,22.09
2022-08-17T19:21:43.402Z,22.03
2022-08-17T19:24:18.113Z,22.00
2022-08-17T19:26:56.761Z,21.95
2022-08-17T19:29:26.379Z,21.90
2022-08-17T19:31:54.154Z,21.78
2022-08-17T19:34:30.038Z,21.72
2022-08-17T19:37:03.804Z,21.59
2022-08-17T19:39:39.787Z,21.47
2022-08-17T19:42:09.848Z,21.41
2022-08-17T19:44:59.961Z,21.33
2022-08-17T19:47:54.854Z,21.24
2022-08-17T19:50:31.885Z,21.14
2022-08-17T19:53:06.688Z,21.05
2022-08-17T19:55:33.504Z,20.93
2022-08-17T19:58:00.430Z,20.84
2022-08-17T20:00:27.975Z,20.78
2022-08-17T20:02:59.777Z,20.69
2022-08-17T20:05:44.262Z,20.61
2022-08-17T20:08:39.756Z,20.57
2022-08-17T20:11:11.349Z,20.50
2022-08-17T20:13:43.060Z,20.47
2022-08-17T20:16:10.722Z,20.43
2022-08-17T20:18:44.435Z,20.33
2022-08-17T20:21:23.566Z,20.20
2022-08-17T20:24:01.700Z,20.11
2022-08-17T20:26:34.016Z,20.03
2022-08-17T20:29:06.740Z,20.00
2022-08-17T20:31:56.337Z,19.99
2022-08-17T20:34:30.977Z,19.94
2022-08-17T20:37:13.243Z,19.92
2022-08-17T20:39:40.097Z,19.83
2022-08-17T20:42:09.054Z,19.71
2022-08-17T20:44:39.581Z,19.64
2022-08-17T20:47:27.549Z,19.57
2022-08-17T20:49:54.534Z,19.46
2022-08-17T20:52:44.763Z,19.41
2022-08-17T20:55:30.401Z,19.34
2022-08-17T20:58:19.340Z,19.25
2022-08-17T21:00:58.205Z,19.18
2022-08-17T21:03:25.054Z,19.05
2022-08-17T21:06:02.519Z,19.00
2022-08-17T21:08:45.668Z,18.97
2022-08-17T21:12:03.306Z,18.85
2022-08-17T21:14:33.582Z,18.73
2022-08-17T21:17:07.371Z,18.68
2022-08-17T21:19:49.034Z,18.65
2022-08-17T21:22:26.926Z,18.58
2022-08-17T21:24:59.057Z,18.54
2022-08-17T21:27:44.876Z,18.46
2022-08-17T21:30:39.264Z,18.41
2022-08-17T21:33:20.188Z,18.41
2022-08-17T21:35:59.198Z,18.39
2022-08-17T21:38:37.488Z,18.38
2022-08-17T21:41:04.525Z,18.36
2022-08-17T21:43:33.889Z,18.36
2022-08-17T21:46:05.432Z,18.33
2022-08-17T21:48:40.647Z,18.25
2022-08-17T21:51:17.810Z,18.17
2022-08-17T21:53:49.112Z,18.13
2022-08-17T21:56:29.166Z,18.07
2022-08-17T21:58:59.287Z,18.06
2022-08-17T22:01:31.943Z,18.00
2022-08-17T22:03:58.782Z,17.97
2022-08-17T22:06:25.596Z,18.00
2022-08-17T22:08:59.792Z,17.98
2022-08-17T22:11:26.691Z,18.01
2022-08-17T22:13:57.254Z,18.02
2022-08-17T22:16:32.526Z,18.03
2022-08-17T22:18:59.445Z,18.02
2022-08-17T22:21:26.624Z,18.03
2022-08-17T22:24:13.965Z,18.05
2022-08-17T22:26:59.424Z,18.10
2022-08-17T22:29:45.018Z,18.09
2022-08-17T22:32:29.757Z,18.13
2022-08-17T22:35:17.706Z,18.12
2022-08-17T22:37:44.660Z,18.06
2022-08-17T22:40:23.330Z,18.03
2022-08-17T22:42:50.159Z,18.02
2022-08-17T22:45:17.000Z,18.02
2022-08-17T22:47:44.092Z,17.85
2022-08-17T22:50:31.180Z,17.86
2022-08-17T22:53:01.003Z,17.79
2022-08-17T22:55:30.047Z,17.79
2022-08-17T22:57:57.179Z,17.73
2022-08-17T23:00:38.662Z,17.67
2022-08-17T23:03:14.813Z,17.67
2022-08-17T23:05:43.556Z,17.61
2022-08-17T23:08:11.098Z,17.60
2022-08-17T23:10:38.679Z,17.56
2022-08-17T23:13:05.503Z,17.48
2022-08-17T23:15:32.333Z,17.43
2022-08-17T23:18:00.380Z,17.39
2022-08-17T23:20:27.203Z,17.36
2022-08-17T23:22:54.071Z,17.33
2022-08-17T23:25:25.552Z,17.24
2022-08-17T23:27:52.704Z,17.24
2022-08-17T23:30:20.175Z,17.26
2022-08-17T23:32:53.735Z,17.23
2022-08-17T23:35:39.385Z,17.23
2022-08-17T23:38:11.903Z,17.24
2022-08-17T23:40:39.759Z,17.21
2022-08-17T23:43:09.835Z,17.22
2022-08-17T23:45:44.520Z,17.23
2022-08-17T23:48:11.363Z,17.21
2022-08-17T23:50:38.270Z,17.24
2022-08-17T23:53:05.986Z,17.23
2022-08-17T23:55:32.851Z,17.22
2022-08-17T23:58:00.480Z,17.21
